sensor_id;sensor_type;location;lat;lon;timestamp;P1;durP1;ratioP1;P2;durP2;ratioP2
20298;SDS011;10308;42.688;23.256;2022-08-19T00:00:36;6.20;;;5.70;;
20298;SDS011;10308;42.688;23.256;2022-08-19T00:03:03;6.03;;;5.50;;
20298;SDS011;10308;42.688;23.256;2022-08-19T00:05:30;7.00;;;6.32;;
20298;SDS011;10308;42.688;23.256;2022-08-19T00:07:57;7.78;;;5.38;;
20298;SDS011;10308;42.688;23.256;2022-08-19T00:10:26;6.70;;;5.40;;
20298;SDS011;10308;42.688;23.256;2022-08-19T00:12:55;7.22;;;5.88;;
20298;SDS011;10308;42.688;23.256;2022-08-19T00:15:24;5.95;;;5.35;;
20298;SDS011;10308;42.688;23.256;2022-08-19T00:17:52;6.30;;;5.80;;
20298;SDS011;10308;42.688;23.256;2022-08-19T00:20:21;6.03;;;5.43;;
20298;SDS011;10308;42.688;23.256;2022-08-19T00:22:49;5.78;;;5.32;;
20298;SDS011;10308;42.688;23.256;2022-08-19T00:25:16;7.13;;;6.05;;
20298;SDS011;10308;42.688;23.256;2022-08-19T00:27:45;7.20;;;5.57;;
20298;SDS011;10308;42.688;23.256;2022-08-19T00:30:13;5.72;;;5.25;;
20298;SDS011;10308;42.688;23.256;2022-08-19T00:32:40;5.88;;;5.47;;
20298;SDS011;10308;42.688;23.256;2022-08-19T00:35:09;5.72;;;5.22;;
20298;SDS011;10308;42.688;23.256;2022-08-19T00:37:36;6.00;;;5.22;;
20298;SDS011;10308;42.688;23.256;2022-08-19T00:40:05;6.05;;;5.45;;
20298;SDS011;10308;42.688;23.256;2022-08-19T00:42:33;7.65;;;6.07;;
20298;SDS011;10308;42.688;23.256;2022-08-19T00:45:00;6.07;;;5.60;;
20298;SDS011;10308;42.688;23.256;2022-08-19T00:47:27;6.35;;;5.75;;
20298;SDS011;10308;42.688;23.256;2022-08-19T00:49:56;6.07;;;5.45;;
20298;SDS011;10308;42.688;23.256;2022-08-19T00:52:29;6.38;;;5.80;;
20298;SDS011;10308;42.688;23.256;2022-08-19T00:54:59;6.07;;;5.57;;
20298;SDS011;10308;42.688;23.256;2022-08-19T00:57:28;5.88;;;5.30;;
20298;SDS011;10308;42.688;23.256;2022-08-19T00:59:58;6.80;;;5.60;;
20298;SDS011;10308;42.688;23.256;2022-08-19T01:02:26;5.50;;;5.10;;
20298;SDS011;10308;42.688;23.256;2022-08-19T01:04:54;5.50;;;5.10;;
20298;SDS011;10308;42.688;23.256;2022-08-19T01:07:21;5.90;;;5.40;;
20298;SDS011;10308;42.688;23.256;2022-08-19T01:09:49;6.20;;;5.43;;
20298;SDS011;10308;42.688;23.256;2022-08-19T01:12:17;4.90;;;4.50;;
20298;SDS011;10308;42.688;23.256;2022-08-19T01:14:44;6.50;;;5.38;;
20298;SDS011;10308;42.688;23.256;2022-08-19T01:17:11;6.10;;;5.50;;
20298;SDS011;10308;42.688;23.256;2022-08-19T01:19:39;7.15;;;5.43;;
20298;SDS011;10308;42.688;23.256;2022-08-19T01:22:08;5.72;;;5.22;;
20298;SDS011;10308;42.688;23.256;2022-08-19T01:24:41;6.15;;;5.55;;
20298;SDS011;10308;42.688;23.256;2022-08-19T01:27:08;5.88;;;5.35;;
20298;SDS011;10308;42.688;23.256;2022-08-19T01:29:37;6.35;;;5.75;;
20298;SDS011;10308;42.688;23.256;2022-08-19T01:32:05;6.47;;;5.72;;
20298;SDS011;10308;42.688;23.256;2022-08-19T01:34:33;5.70;;;5.30;;
20298;SDS011;10308;42.688;23.256;2022-08-19T01:37:00;5.80;;;5.32;;
20298;SDS011;10308;42.688;23.256;2022-08-19T01:39:33;6.15;;;5.65;;
20298;SDS011;10308;42.688;23.256;2022-08-19T01:42:03;5.82;;;5.38;;
20298;SDS011;10308;42.688;23.256;2022-08-19T01:44:32;6.63;;;6.03;;
20298;SDS011;10308;42.688;23.256;2022-08-19T01:47:01;6.78;;;5.88;;
20298;SDS011;10308;42.688;23.256;2022-08-19T01:49:30;6.80;;;6.20;;
20298;SDS011;10308;42.688;23.256;2022-08-19T01:51:58;6.85;;;6.00;;
20298;SDS011;10308;42.688;23.256;2022-08-19T01:54:27;6.90;;;6.05;;
20298;SDS011;10308;42.688;23.256;2022-08-19T01:56:56;6.13;;;5.70;;
20298;SDS011;10308;42.688;23.256;2022-08-19T01:59:29;6.03;;;5.53;;
20298;SDS011;10308;42.688;23.256;2022-08-19T02:01:56;6.30;;;5.70;;
20298;SDS011;10308;42.688;23.256;2022-08-19T02:04:24;6.32;;;5.82;;
20298;SDS011;10308;42.688;23.256;2022-08-19T02:06:52;6.75;;;6.15;;
20298;SDS011;10308;42.688;23.256;2022-08-19T02:09:19;6.50;;;6.00;;
20298;SDS011;10308;42.688;23.256;2022-08-19T02:11:46;7.25;;;6.25;;
20298;SDS011;10308;42.688;23.256;2022-08-19T02:14:14;6.97;;;6.28;;
20298;SDS011;10308;42.688;23.256;2022-08-19T02:16:42;8.45;;;6.32;;
20298;SDS011;10308;42.688;23.256;2022-08-19T02:19:11;9.63;;;7.00;;
20298;SDS011;10308;42.688;23.256;2022-08-19T02:21:38;6.95;;;6.07;;
20298;SDS011;10308;42.688;23.256;2022-08-19T02:24:04;7.32;;;6.43;;
20298;SDS011;10308;42.688;23.256;2022-08-19T02:26:33;7.47;;;6.72;;
20298;SDS011;10308;42.688;23.256;2022-08-19T02:29:02;7.30;;;6.22;;
20298;SDS011;10308;42.688;23.256;2022-08-19T02:31:29;6.78;;;6.20;;
20298;SDS011;10308;42.688;23.256;2022-08-19T02:33:59;7.20;;;6.50;;
20298;SDS011;10308;42.688;23.256;2022-08-19T02:36:27;8.57;;;6.68;;
20298;SDS011;10308;42.688;23.256;2022-08-19T02:38:55;8.48;;;6.72;;
20298;SDS011;10308;42.688;23.256;2022-08-19T02:41:21;7.32;;;6.57;;
20298;SDS011;10308;42.688;23.256;2022-08-19T02:43:49;10.57;;;7.90;;
20298;SDS011;10308;42.688;23.256;2022-08-19T02:46:21;8.50;;;7.15;;
20298;SDS011;10308;42.688;23.256;2022-08-19T02:48:50;7.85;;;7.07;;
20298;SDS011;10308;42.688;23.256;2022-08-19T02:51:24;8.50;;;7.63;;
20298;SDS011;10308;42.688;23.256;2022-08-19T02:53:55;7.90;;;7.10;;
20298;SDS011;10308;42.688;23.256;2022-08-19T02:56:23;7.57;;;6.97;;
20298;SDS011;10308;42.688;23.256;2022-08-19T02:58:54;7.80;;;7.10;;
20298;SDS011;10308;42.688;23.256;2022-08-19T03:01:22;8.80;;;7.07;;
20298;SDS011;10308;42.688;23.256;2022-08-19T03:03:52;8.45;;;6.63;;
20298;SDS011;10308;42.688;23.256;2022-08-19T03:06:22;8.02;;;7.22;;
20298;SDS011;10308;42.688;23.256;2022-08-19T03:08:49;8.18;;;7.38;;
20298;SDS011;10308;42.688;23.256;2022-08-19T03:11:18;7.65;;;6.95;;
20298;SDS011;10308;42.688;23.256;2022-08-19T03:13:46;7.93;;;7.00;;
20298;SDS011;10308;42.688;23.256;2022-08-19T03:16:16;8.00;;;7.20;;
20298;SDS011;10308;42.688;23.256;2022-08-19T03:18:43;7.55;;;6.88;;
20298;SDS011;10308;42.688;23.256;2022-08-19T03:21:16;8.10;;;6.70;;
20298;SDS011;10308;42.688;23.256;2022-08-19T03:23:45;7.43;;;6.72;;
20298;SDS011;10308;42.688;23.256;2022-08-19T03:26:11;7.43;;;6.82;;
20298;SDS011;10308;42.688;23.256;2022-08-19T03:28:39;8.20;;;7.10;;
20298;SDS011;10308;42.688;23.256;2022-08-19T03:31:09;7.30;;;6.70;;
20298;SDS011;10308;42.688;23.256;2022-08-19T03:33:40;7.53;;;6.82;;
20298;SDS011;10308;42.688;23.256;2022-08-19T03:36:08;7.82;;;7.03;;
20298;SDS011;10308;42.688;23.256;2022-08-19T03:38:39;7.45;;;6.75;;
20298;SDS011;10308;42.688;23.256;2022-08-19T03:41:09;8.23;;;7.10;;
20298;SDS011;10308;42.688;23.256;2022-08-19T03:43:38;7.55;;;6.78;;
20298;SDS011;10308;42.688;23.256;2022-08-19T03:46:07;8.15;;;6.85;;
20298;SDS011;10308;42.688;23.256;2022-08-19T03:48:36;7.68;;;6.88;;
20298;SDS011;10308;42.688;23.256;2022-08-19T03:51:06;8.20;;;7.07;;
20298;SDS011;10308;42.688;23.256;2022-08-19T03:53:33;10.38;;;7.15;;
20298;SDS011;10308;42.688;23.256;2022-08-19T03:56:01;9.00;;;7.00;;
20298;SDS011;10308;42.688;23.256;2022-08-19T03:58:31;8.10;;;6.90;;
20298;SDS011;10308;42.688;23.256;2022-08-19T04:01:00;8.38;;;7.53;;
20298;SDS011;10308;42.688;23.256;2022-08-19T04:03:27;11.43;;;7.55;;
20298;SDS011;10308;42.688;23.256;2022-08-19T04:05:54;8.60;;;7.57;;
20298;SDS011;10308;42.688;23.256;2022-08-19T04:08:21;9.43;;;7.30;;
20298;SDS011;10308;42.688;23.256;2022-08-19T04:10:48;10.55;;;7.60;;
20298;SDS011;10308;42.688;23.256;2022-08-19T04:13:16;9.63;;;7.35;;
20298;SDS011;10308;42.688;23.256;2022-08-19T04:15:45;11.25;;;7.63;;
20298;SDS011;10308;42.688;23.256;2022-08-19T04:18:12;11.55;;;7.55;;
20298;SDS011;10308;42.688;23.256;2022-08-19T04:20:42;8.95;;;7.78;;
20298;SDS011;10308;42.688;23.256;2022-08-19T04:23:10;11.75;;;7.72;;
20298;SDS011;10308;42.688;23.256;2022-08-19T04:25:38;11.32;;;7.57;;
20298;SDS011;10308;42.688;23.256;2022-08-19T04:28:06;10.02;;;7.07;;
20298;SDS011;10308;42.688;23.256;2022-08-19T04:30:38;10.05;;;8.20;;
20298;SDS011;10308;42.688;23.256;2022-08-19T04:33:07;12.63;;;7.80;;
20298;SDS011;10308;42.688;23.256;2022-08-19T04:35:35;9.25;;;8.23;;
20298;SDS011;10308;42.688;23.256;2022-08-19T04:38:04;9.43;;;7.20;;
20298;SDS011;10308;42.688;23.256;2022-08-19T04:40:32;11.45;;;8.00;;
20298;SDS011;10308;42.688;23.256;2022-08-19T04:43:17;11.00;;;7.80;;
20298;SDS011;10308;42.688;23.256;2022-08-19T04:45:44;13.13;;;8.50;;
20298;SDS011;10308;42.688;23.256;2022-08-19T04:48:15;12.55;;;8.98;;
20298;SDS011;10308;42.688;23.256;2022-08-19T04:50:42;9.18;;;8.27;;
20298;SDS011;10308;42.688;23.256;2022-08-19T04:53:11;12.73;;;8.93;;
20298;SDS011;10308;42.688;23.256;2022-08-19T04:55:38;16.15;;;9.13;;
20298;SDS011;10308;42.688;23.256;2022-08-19T04:58:06;11.10;;;8.90;;
20298;SDS011;10308;42.688;23.256;2022-08-19T05:00:33;10.68;;;9.40;;
20298;SDS011;10308;42.688;23.256;2022-08-19T05:03:00;9.63;;;8.75;;
20298;SDS011;10308;42.688;23.256;2022-08-19T05:05:29;9.43;;;8.10;;
20298;SDS011;10308;42.688;23.256;2022-08-19T05:07:56;9.43;;;8.48;;
20298;SDS011;10308;42.688;23.256;2022-08-19T05:10:25;9.38;;;8.50;;
20298;SDS011;10308;42.688;23.256;2022-08-19T05:12:52;8.98;;;8.25;;
20298;SDS011;10308;42.688;23.256;2022-08-19T05:15:23;11.35;;;9.32;;
20298;SDS011;10308;42.688;23.256;2022-08-19T05:17:50;11.70;;;9.20;;
20298;SDS011;10308;42.688;23.256;2022-08-19T05:20:35;10.38;;;9.30;;
20298;SDS011;10308;42.688;23.256;2022-08-19T05:23:21;10.18;;;9.27;;
20298;SDS011;10308;42.688;23.256;2022-08-19T05:25:49;10.25;;;9.38;;
20298;SDS011;10308;42.688;23.256;2022-08-19T05:28:16;9.07;;;8.27;;
20298;SDS011;10308;42.688;23.256;2022-08-19T05:30:43;11.35;;;9.27;;
20298;SDS011;10308;42.688;23.256;2022-08-19T05:33:11;10.95;;;9.90;;
20298;SDS011;10308;42.688;23.256;2022-08-19T05:35:41;9.38;;;8.48;;
20298;SDS011;10308;42.688;23.256;2022-08-19T05:38:12;8.90;;;8.10;;
20298;SDS011;10308;42.688;23.256;2022-08-19T05:40:39;8.93;;;8.02;;
20298;SDS011;10308;42.688;23.256;2022-08-19T05:43:12;9.82;;;8.77;;
20298;SDS011;10308;42.688;23.256;2022-08-19T05:45:41;8.80;;;7.95;;
20298;SDS011;10308;42.688;23.256;2022-08-19T05:48:08;9.23;;;8.43;;
20298;SDS011;10308;42.688;23.256;2022-08-19T05:50:36;8.60;;;7.75;;
20298;SDS011;10308;42.688;23.256;2022-08-19T05:53:05;9.57;;;8.57;;
20298;SDS011;10308;42.688;23.256;2022-08-19T05:55:32;9.27;;;8.38;;
20298;SDS011;10308;42.688;23.256;2022-08-19T05:57:59;9.82;;;8.50;;
20298;SDS011;10308;42.688;23.256;2022-08-19T06:00:27;9.25;;;8.40;;
20298;SDS011;10308;42.688;23.256;2022-08-19T06:02:55;10.27;;;9.35;;
20298;SDS011;10308;42.688;23.256;2022-08-19T06:05:27;13.27;;;10.43;;
20298;SDS011;10308;42.688;23.256;2022-08-19T06:07:58;12.95;;;11.75;;
20298;SDS011;10308;42.688;23.256;2022-08-19T06:10:32;17.75;;;16.20;;
20298;SDS011;10308;42.688;23.256;2022-08-19T06:12:59;14.27;;;12.88;;
20298;SDS011;10308;42.688;23.256;2022-08-19T06:15:26;14.05;;;12.95;;
20298;SDS011;10308;42.688;23.256;2022-08-19T06:17:53;14.10;;;12.43;;
20298;SDS011;10308;42.688;23.256;2022-08-19T06:20:19;13.02;;;11.82;;
20298;SDS011;10308;42.688;23.256;2022-08-19T06:22:49;11.90;;;10.65;;
20298;SDS011;10308;42.688;23.256;2022-08-19T06:25:17;11.30;;;10.13;;
20298;SDS011;10308;42.688;23.256;2022-08-19T06:27:45;10.57;;;9.57;;
20298;SDS011;10308;42.688;23.256;2022-08-19T06:30:12;10.15;;;9.07;;
20298;SDS011;10308;42.688;23.256;2022-08-19T06:32:41;10.35;;;9.35;;
20298;SDS011;10308;42.688;23.256;2022-08-19T06:35:08;12.38;;;11.07;;
20298;SDS011;10308;42.688;23.256;2022-08-19T06:37:36;9.48;;;8.45;;
20298;SDS011;10308;42.688;23.256;2022-08-19T06:40:03;9.80;;;8.32;;
20298;SDS011;10308;42.688;23.256;2022-08-19T06:42:32;12.60;;;9.90;;
20298;SDS011;10308;42.688;23.256;2022-08-19T06:45:01;11.07;;;9.98;;
20298;SDS011;10308;42.688;23.256;2022-08-19T06:47:30;11.48;;;9.35;;
20298;SDS011;10308;42.688;23.256;2022-08-19T06:49:58;16.90;;;15.20;;
20298;SDS011;10308;42.688;23.256;2022-08-19T06:52:28;10.05;;;9.02;;
20298;SDS011;10308;42.688;23.256;2022-08-19T06:54:56;12.20;;;10.18;;
20298;SDS011;10308;42.688;23.256;2022-08-19T06:57:22;10.50;;;9.40;;
20298;SDS011;10308;42.688;23.256;2022-08-19T06:59:50;11.80;;;8.75;;
20298;SDS011;10308;42.688;23.256;2022-08-19T07:02:19;10.20;;;9.23;;
20298;SDS011;10308;42.688;23.256;2022-08-19T07:04:47;10.05;;;9.05;;
20298;SDS011;10308;42.688;23.256;2022-08-19T07:07:14;9.98;;;8.88;;
20298;SDS011;10308;42.688;23.256;2022-08-19T07:09:44;9.73;;;8.70;;
20298;SDS011;10308;42.688;23.256;2022-08-19T07:12:12;10.73;;;9.82;;
20298;SDS011;10308;42.688;23.256;2022-08-19T07:14:40;11.95;;;9.95;;
20298;SDS011;10308;42.688;23.256;2022-08-19T07:17:07;8.75;;;7.90;;
20298;SDS011;10308;42.688;23.256;2022-08-19T07:19:37;10.13;;;9.10;;
20298;SDS011;10308;42.688;23.256;2022-08-19T07:22:05;9.57;;;8.57;;
20298;SDS011;10308;42.688;23.256;2022-08-19T07:24:33;9.73;;;8.15;;
20298;SDS011;10308;42.688;23.256;2022-08-19T07:27:02;10.85;;;8.90;;
20298;SDS011;10308;42.688;23.256;2022-08-19T07:29:31;9.98;;;9.00;;
20298;SDS011;10308;42.688;23.256;2022-08-19T07:31:59;10.90;;;9.90;;
20298;SDS011;10308;42.688;23.256;2022-08-19T07:34:29;10.90;;;9.80;;
20298;SDS011;10308;42.688;23.256;2022-08-19T07:37:01;10.95;;;8.65;;
20298;SDS011;10308;42.688;23.256;2022-08-19T07:39:30;10.05;;;8.55;;
20298;SDS011;10308;42.688;23.256;2022-08-19T07:42:00;10.65;;;9.55;;
20298;SDS011;10308;42.688;23.256;2022-08-19T07:44:31;13.65;;;10.10;;
20298;SDS011;10308;42.688;23.256;2022-08-19T07:47:00;11.30;;;9.07;;
20298;SDS011;10308;42.688;23.256;2022-08-19T07:49:29;9.35;;;8.40;;
20298;SDS011;10308;42.688;23.256;2022-08-19T07:52:03;9.70;;;8.73;;
20298;SDS011;10308;42.688;23.256;2022-08-19T07:54:33;10.82;;;9.25;;
20298;SDS011;10308;42.688;23.256;2022-08-19T07:57:01;9.80;;;8.90;;
20298;SDS011;10308;42.688;23.256;2022-08-19T07:59:28;9.65;;;8.70;;
20298;SDS011;10308;42.688;23.256;2022-08-19T08:01:58;9.38;;;8.45;;
20298;SDS011;10308;42.688;23.256;2022-08-19T08:04:25;10.55;;;8.80;;
20298;SDS011;10308;42.688;23.256;2022-08-19T08:07:11;8.43;;;7.57;;
20298;SDS011;10308;42.688;23.256;2022-08-19T08:09:56;8.65;;;7.85;;
20298;SDS011;10308;42.688;23.256;2022-08-19T08:12:25;9.55;;;8.07;;
20298;SDS011;10308;42.688;23.256;2022-08-19T08:14:55;9.63;;;8.63;;
20298;SDS011;10308;42.688;23.256;2022-08-19T08:17:27;9.02;;;8.10;;
20298;SDS011;10308;42.688;23.256;2022-08-19T08:19:57;10.35;;;8.32;;
20298;SDS011;10308;42.688;23.256;2022-08-19T08:22:31;8.60;;;7.72;;
20298;SDS011;10308;42.688;23.256;2022-08-19T08:25:19;8.70;;;7.80;;
20298;SDS011;10308;42.688;23.256;2022-08-19T08:27:48;8.73;;;7.93;;
20298;SDS011;10308;42.688;23.256;2022-08-19T08:30:16;7.97;;;7.25;;
20298;SDS011;10308;42.688;23.256;2022-08-19T08:32:44;8.48;;;7.38;;
20298;SDS011;10308;42.688;23.256;2022-08-19T08:35:12;8.85;;;7.40;;
20298;SDS011;10308;42.688;23.256;2022-08-19T08:37:42;8.85;;;7.25;;
20298;SDS011;10308;42.688;23.256;2022-08-19T08:42:55;8.68;;;7.78;;
20298;SDS011;10308;42.688;23.256;2022-08-19T08:45:27;8.02;;;7.30;;
20298;SDS011;10308;42.688;23.256;2022-08-19T08:47:57;7.18;;;6.57;;
20298;SDS011;10308;42.688;23.256;2022-08-19T08:50:29;8.20;;;7.40;;
20298;SDS011;10308;42.688;23.256;2022-08-19T08:53:03;8.30;;;7.47;;
20298;SDS011;10308;42.688;23.256;2022-08-19T08:55:30;7.53;;;6.82;;
20298;SDS011;10308;42.688;23.256;2022-08-19T08:57:59;8.38;;;7.57;;
20298;SDS011;10308;42.688;23.256;2022-08-19T09:00:30;7.45;;;6.90;;
20298;SDS011;10308;42.688;23.256;2022-08-19T09:02:59;8.52;;;7.55;;
20298;SDS011;10308;42.688;23.256;2022-08-19T09:05:32;9.60;;;7.65;;
20298;SDS011;10308;42.688;23.256;2022-08-19T09:08:07;7.63;;;6.82;;
20298;SDS011;10308;42.688;23.256;2022-08-19T09:10:37;8.15;;;7.30;;
20298;SDS011;10308;42.688;23.256;2022-08-19T09:13:07;8.50;;;6.93;;
20298;SDS011;10308;42.688;23.256;2022-08-19T09:15:42;7.53;;;6.40;;
20298;SDS011;10308;42.688;23.256;2022-08-19T09:18:13;7.57;;;6.00;;
20298;SDS011;10308;42.688;23.256;2022-08-19T09:20:43;7.28;;;6.57;;
20298;SDS011;10308;42.688;23.256;2022-08-19T09:23:13;7.10;;;6.05;;
20298;SDS011;10308;42.688;23.256;2022-08-19T09:25:40;6.50;;;5.90;;
20298;SDS011;10308;42.688;23.256;2022-08-19T09:28:07;5.68;;;5.28;;
20298;SDS011;10308;42.688;23.256;2022-08-19T09:30:34;6.15;;;5.40;;
20298;SDS011;10308;42.688;23.256;2022-08-19T09:33:08;6.47;;;5.95;;
20298;SDS011;10308;42.688;23.256;2022-08-19T09:35:36;6.13;;;5.63;;
20298;SDS011;10308;42.688;23.256;2022-08-19T09:38:04;5.80;;;5.30;;
20298;SDS011;10308;42.688;23.256;2022-08-19T09:40:32;5.18;;;4.78;;
20298;SDS011;10308;42.688;23.256;2022-08-19T09:42:59;5.90;;;5.20;;
20298;SDS011;10308;42.688;23.256;2022-08-19T09:45:28;5.80;;;5.30;;
20298;SDS011;10308;42.688;23.256;2022-08-19T09:47:55;5.88;;;5.38;;
20298;SDS011;10308;42.688;23.256;2022-08-19T09:50:23;5.75;;;5.25;;
20298;SDS011;10308;42.688;23.256;2022-08-19T09:52:50;5.80;;;5.25;;
20298;SDS011;10308;42.688;23.256;2022-08-19T09:55:19;5.90;;;5.40;;
20298;SDS011;10308;42.688;23.256;2022-08-19T09:57:47;5.20;;;4.72;;
20298;SDS011;10308;42.688;23.256;2022-08-19T10:00:15;5.35;;;4.85;;
20298;SDS011;10308;42.688;23.256;2022-08-19T10:02:42;5.70;;;5.20;;
20298;SDS011;10308;42.688;23.256;2022-08-19T10:05:08;5.07;;;4.57;;
20298;SDS011;10308;42.688;23.256;2022-08-19T10:07:53;6.05;;;4.32;;
20298;SDS011;10308;42.688;23.256;2022-08-19T10:10:23;5.88;;;5.45;;
20298;SDS011;10308;42.688;23.256;2022-08-19T10:12:53;5.05;;;4.55;;
20298;SDS011;10308;42.688;23.256;2022-08-19T10:15:21;5.15;;;4.65;;
20298;SDS011;10308;42.688;23.256;2022-08-19T10:17:47;6.38;;;4.75;;
20298;SDS011;10308;42.688;23.256;2022-08-19T10:20:14;5.32;;;4.82;;
20298;SDS011;10308;42.688;23.256;2022-08-19T10:22:41;5.25;;;4.85;;
20298;SDS011;10308;42.688;23.256;2022-08-19T10:25:10;5.28;;;4.88;;
20298;SDS011;10308;42.688;23.256;2022-08-19T10:27:42;4.90;;;4.60;;
20298;SDS011;10308;42.688;23.256;2022-08-19T10:30:11;4.75;;;4.35;;
20298;SDS011;10308;42.688;23.256;2022-08-19T10:32:39;5.47;;;4.97;;
20298;SDS011;10308;42.688;23.256;2022-08-19T10:35:05;5.10;;;4.70;;
20298;SDS011;10308;42.688;23.256;2022-08-19T10:37:33;6.00;;;4.38;;
20298;SDS011;10308;42.688;23.256;2022-08-19T10:40:02;4.82;;;4.45;;
20298;SDS011;10308;42.688;23.256;2022-08-19T10:42:32;5.45;;;4.95;;
20298;SDS011;10308;42.688;23.256;2022-08-19T10:44:59;5.50;;;5.00;;
20298;SDS011;10308;42.688;23.256;2022-08-19T10:47:29;5.22;;;4.82;;
20298;SDS011;10308;42.688;23.256;2022-08-19T10:49:56;5.60;;;5.20;;
20298;SDS011;10308;42.688;23.256;2022-08-19T10:52:42;5.90;;;5.30;;
20298;SDS011;10308;42.688;23.256;2022-08-19T10:55:10;5.78;;;5.18;;
20298;SDS011;10308;42.688;23.256;2022-08-19T10:57:56;5.80;;;5.22;;
20298;SDS011;10308;42.688;23.256;2022-08-19T11:00:23;5.38;;;4.85;;
20298;SDS011;10308;42.688;23.256;2022-08-19T11:02:54;5.47;;;4.95;;
20298;SDS011;10308;42.688;23.256;2022-08-19T11:05:21;5.63;;;5.13;;
20298;SDS011;10308;42.688;23.256;2022-08-19T11:07:51;6.63;;;5.90;;
20298;SDS011;10308;42.688;23.256;2022-08-19T11:10:17;5.68;;;5.18;;
20298;SDS011;10308;42.688;23.256;2022-08-19T11:12:45;5.40;;;5.00;;
20298;SDS011;10308;42.688;23.256;2022-08-19T11:15:13;6.18;;;5.57;;
20298;SDS011;10308;42.688;23.256;2022-08-19T11:17:40;5.97;;;5.40;;
20298;SDS011;10308;42.688;23.256;2022-08-19T11:20:11;7.45;;;5.80;;
20298;SDS011;10308;42.688;23.256;2022-08-19T11:22:39;6.57;;;5.30;;
20298;SDS011;10308;42.688;23.256;2022-08-19T11:25:08;5.78;;;5.38;;
20298;SDS011;10308;42.688;23.256;2022-08-19T11:27:37;6.45;;;5.20;;
20298;SDS011;10308;42.688;23.256;2022-08-19T11:30:07;7.45;;;5.45;;
20298;SDS011;10308;42.688;23.256;2022-08-19T11:32:35;5.85;;;5.35;;
20298;SDS011;10308;42.688;23.256;2022-08-19T11:35:02;5.88;;;5.38;;
20298;SDS011;10308;42.688;23.256;2022-08-19T11:37:33;5.93;;;5.32;;
20298;SDS011;10308;42.688;23.256;2022-08-19T11:40:03;5.88;;;5.38;;
20298;SDS011;10308;42.688;23.256;2022-08-19T11:42:31;5.47;;;5.00;;
20298;SDS011;10308;42.688;23.256;2022-08-19T11:45:16;5.53;;;4.97;;
20298;SDS011;10308;42.688;23.256;2022-08-19T11:47:43;7.88;;;7.13;;
20298;SDS011;10308;42.688;23.256;2022-08-19T11:50:11;5.63;;;5.10;;
20298;SDS011;10308;42.688;23.256;2022-08-19T11:52:39;5.68;;;5.28;;
20298;SDS011;10308;42.688;23.256;2022-08-19T11:55:08;5.53;;;5.10;;
20298;SDS011;10308;42.688;23.256;2022-08-19T11:57:36;6.82;;;5.68;;
20298;SDS011;10308;42.688;23.256;2022-08-19T12:00:04;5.72;;;5.22;;
20298;SDS011;10308;42.688;23.256;2022-08-19T12:02:34;6.10;;;5.60;;
20298;SDS011;10308;42.688;23.256;2022-08-19T12:05:00;6.35;;;5.85;;
20298;SDS011;10308;42.688;23.256;2022-08-19T12:07:28;5.53;;;5.03;;
20298;SDS011;10308;42.688;23.256;2022-08-19T12:10:00;6.15;;;5.10;;
20298;SDS011;10308;42.688;23.256;2022-08-19T12:12:27;5.60;;;5.20;;
20298;SDS011;10308;42.688;23.256;2022-08-19T12:14:54;5.82;;;5.18;;
20298;SDS011;10308;42.688;23.256;2022-08-19T12:17:23;6.15;;;5.65;;
20298;SDS011;10308;42.688;23.256;2022-08-19T12:19:51;6.68;;;5.60;;
20298;SDS011;10308;42.688;23.256;2022-08-19T12:22:18;5.70;;;5.18;;
20298;SDS011;10308;42.688;23.256;2022-08-19T12:24:45;5.88;;;5.38;;
20298;SDS011;10308;42.688;23.256;2022-08-19T12:27:14;6.18;;;5.57;;
20298;SDS011;10308;42.688;23.256;2022-08-19T12:29:41;5.50;;;5.00;;
20298;SDS011;10308;42.688;23.256;2022-08-19T12:32:08;5.88;;;5.38;;
20298;SDS011;10308;42.688;23.256;2022-08-19T12:34:35;5.75;;;5.32;;
20298;SDS011;10308;42.688;23.256;2022-08-19T12:37:03;5.60;;;5.10;;
20298;SDS011;10308;42.688;23.256;2022-08-19T12:39:34;5.85;;;5.35;;
20298;SDS011;10308;42.688;23.256;2022-08-19T12:42:03;5.95;;;5.35;;
20298;SDS011;10308;42.688;23.256;2022-08-19T12:44:33;5.63;;;5.15;;
20298;SDS011;10308;42.688;23.256;2022-08-19T12:47:03;5.78;;;5.28;;
20298;SDS011;10308;42.688;23.256;2022-08-19T12:49:31;5.28;;;4.78;;
20298;SDS011;10308;42.688;23.256;2022-08-19T12:51:58;5.75;;;5.30;;
20298;SDS011;10308;42.688;23.256;2022-08-19T12:54:25;6.03;;;5.45;;
20298;SDS011;10308;42.688;23.256;2022-08-19T12:56:52;6.55;;;5.95;;
20298;SDS011;10308;42.688;23.256;2022-08-19T12:59:19;6.68;;;5.15;;
20298;SDS011;10308;42.688;23.256;2022-08-19T13:01:47;6.20;;;5.68;;
20298;SDS011;10308;42.688;23.256;2022-08-19T13:04:14;5.75;;;5.20;;
20298;SDS011;10308;42.688;23.256;2022-08-19T13:06:41;5.78;;;5.20;;
20298;SDS011;10308;42.688;23.256;2022-08-19T13:09:08;5.15;;;4.75;;
20298;SDS011;10308;42.688;23.256;2022-08-19T13:11:36;6.13;;;4.82;;
20298;SDS011;10308;42.688;23.256;2022-08-19T13:14:03;5.60;;;5.10;;
20298;SDS011;10308;42.688;23.256;2022-08-19T13:16:33;6.00;;;5.38;;
20298;SDS011;10308;42.688;23.256;2022-08-19T13:19:02;5.03;;;4.63;;
20298;SDS011;10308;42.688;23.256;2022-08-19T13:21:31;5.50;;;5.10;;
20298;SDS011;10308;42.688;23.256;2022-08-19T13:23:58;7.63;;;5.28;;
20298;SDS011;10308;42.688;23.256;2022-08-19T13:26:25;5.75;;;5.00;;
20298;SDS011;10308;42.688;23.256;2022-08-19T13:28:52;5.57;;;5.07;;
20298;SDS011;10308;42.688;23.256;2022-08-19T13:31:36;4.97;;;4.60;;
20298;SDS011;10308;42.688;23.256;2022-08-19T13:34:30;4.97;;;4.60;;
20298;SDS011;10308;42.688;23.256;2022-08-19T13:36:59;6.03;;;5.53;;
20298;SDS011;10308;42.688;23.256;2022-08-19T13:39:32;6.25;;;5.53;;
20298;SDS011;10308;42.688;23.256;2022-08-19T13:41:59;5.32;;;4.93;;
20298;SDS011;10308;42.688;23.256;2022-08-19T13:44:31;5.57;;;4.82;;
20298;SDS011;10308;42.688;23.256;2022-08-19T13:47:00;5.68;;;4.90;;
20298;SDS011;10308;42.688;23.256;2022-08-19T13:49:33;5.68;;;5.03;;
20298;SDS011;10308;42.688;23.256;2022-08-19T13:52:01;5.75;;;5.25;;
20298;SDS011;10308;42.688;23.256;2022-08-19T13:54:28;6.63;;;5.85;;
20298;SDS011;10308;42.688;23.256;2022-08-19T13:56:55;6.30;;;5.70;;
20298;SDS011;10308;42.688;23.256;2022-08-19T13:59:22;6.30;;;5.70;;
20298;SDS011;10308;42.688;23.256;2022-08-19T14:01:51;6.78;;;5.25;;
20298;SDS011;10308;42.688;23.256;2022-08-19T14:04:18;6.80;;;6.20;;
20298;SDS011;10308;42.688;23.256;2022-08-19T14:06:46;6.15;;;5.57;;
20298;SDS011;10308;42.688;23.256;2022-08-19T14:09:13;7.38;;;5.88;;
20298;SDS011;10308;42.688;23.256;2022-08-19T14:11:42;5.80;;;5.30;;
20298;SDS011;10308;42.688;23.256;2022-08-19T14:14:11;5.97;;;5.38;;
20298;SDS011;10308;42.688;23.256;2022-08-19T14:16:37;5.45;;;4.95;;
20298;SDS011;10308;42.688;23.256;2022-08-19T14:19:04;7.25;;;6.55;;
20298;SDS011;10308;42.688;23.256;2022-08-19T14:21:32;6.57;;;5.97;;
20298;SDS011;10308;42.688;23.256;2022-08-19T14:24:01;8.80;;;5.72;;
20298;SDS011;10308;42.688;23.256;2022-08-19T14:26:28;5.88;;;5.43;;
20298;SDS011;10308;42.688;23.256;2022-08-19T14:28:56;6.68;;;6.05;;
20298;SDS011;10308;42.688;23.256;2022-08-19T14:31:23;6.60;;;5.97;;
20298;SDS011;10308;42.688;23.256;2022-08-19T14:33:51;6.68;;;5.53;;
20298;SDS011;10308;42.688;23.256;2022-08-19T14:36:18;6.30;;;5.63;;
20298;SDS011;10308;42.688;23.256;2022-08-19T14:38:48;5.85;;;5.35;;
20298;SDS011;10308;42.688;23.256;2022-08-19T14:41:19;6.50;;;5.90;;
20298;SDS011;10308;42.688;23.256;2022-08-19T14:43:48;7.25;;;5.70;;